createdAt,value
2024-02-09T00:00:41.768Z,38.20
2024-02-09T00:03:30.039Z,36.50
2024-02-09T00:05:57.937Z,37.20
2024-02-09T00:08:25.898Z,36.50
2024-02-09T00:10:54.072Z,36.40
2024-02-09T00:13:21.841Z,35.70
2024-02-09T00:15:49.901Z,38.00
2024-02-09T00:18:18.703Z,37.60
2024-02-09T00:20:48.543Z,38.60
2024-02-09T00:23:16.981Z,38.10
2024-02-09T00:25:44.988Z,39.40
2024-02-09T00:28:13.498Z,40.20
2024-02-09T00:30:42.394Z,37.90
2024-02-09T00:33:10.793Z,40.20
2024-02-09T00:35:42.451Z,39.50
2024-02-09T00:38:11.250Z,41.20
2024-02-09T00:40:40.556Z,39.40
2024-02-09T00:43:08.966Z,38.50
2024-02-09T00:45:36.814Z,35.70
2024-02-09T00:48:05.367Z,35.10
2024-02-09T00:50:33.796Z,37.90
2024-02-09T00:53:01.618Z,36.40
2024-02-09T00:55:30.801Z,35.40
2024-02-09T00:57:59.223Z,36.50
2024-02-09T01:00:31.898Z,35.80
2024-02-09T01:03:04.348Z,37.40
2024-02-09T01:05:34.373Z,35.50
2024-02-09T01:08:05.950Z,34.00
2024-02-09T01:10:33.836Z,31.90
2024-02-09T01:13:20.721Z,33.20
2024-02-09T01:16:07.319Z,32.60
2024-02-09T01:18:53.680Z,30.50
2024-02-09T01:21:40.443Z,30.40
2024-02-09T01:24:26.833Z,30.20
2024-02-09T01:27:13.490Z,27.00
2024-02-09T01:30:00.013Z,27.30
2024-02-09T01:32:46.728Z,26.80
2024-02-09T01:35:33.099Z,25.30
2024-02-09T01:38:19.455Z,25.50
2024-02-09T01:41:05.878Z,22.40
2024-02-09T01:43:52.823Z,22.00
2024-02-09T01:46:40.940Z,22.70
2024-02-09T01:49:27.349Z,22.80
2024-02-09T01:52:14.553Z,19.60
2024-02-09T01:55:01.042Z,20.50
2024-02-09T01:57:47.791Z,20.10
2024-02-09T02:00:34.305Z,20.40
2024-02-09T02:03:22.208Z,19.80
2024-02-09T02:06:09.331Z,21.30
2024-02-09T02:08:55.613Z,20.90
2024-02-09T02:11:41.810Z,21.90
2024-02-09T02:14:28.470Z,21.60
2024-02-09T02:17:14.951Z,20.90
2024-02-09T02:20:01.626Z,21.80
2024-02-09T02:22:51.889Z,21.70
2024-02-09T02:25:38.614Z,21.50
2024-02-09T02:28:30.418Z,22.40
2024-02-09T02:31:17.184Z,21.10
2024-02-09T02:34:04.050Z,21.40
2024-02-09T02:36:50.815Z,21.30
2024-02-09T02:39:37.111Z,21.60
2024-02-09T02:42:04.897Z,23.50
2024-02-09T02:44:32.615Z,23.80
2024-02-09T02:47:02.304Z,23.30
2024-02-09T02:49:49.672Z,22.70
2024-02-09T02:52:36.037Z,21.80
2024-02-09T02:55:22.930Z,22.80
2024-02-09T02:58:09.664Z,21.30
2024-02-09T03:00:56.268Z,21.50
2024-02-09T03:03:42.948Z,20.70
2024-02-09T03:06:12.035Z,20.90
2024-02-09T03:08:47.282Z,20.40
2024-02-09T03:11:18.397Z,20.40
2024-02-09T03:13:46.232Z,19.70
2024-02-09T03:16:18.528Z,18.90
2024-02-09T03:18:46.419Z,18.00
2024-02-09T03:21:21.211Z,18.90
2024-02-09T03:23:49.129Z,18.90
2024-02-09T03:26:16.885Z,18.10
2024-02-09T03:28:44.788Z,18.80
2024-02-09T03:31:14.074Z,18.90
2024-02-09T03:33:41.990Z,17.20
2024-02-09T03:36:10.310Z,16.20
2024-02-09T03:38:37.987Z,16.30
2024-02-09T03:41:06.158Z,15.80
2024-02-09T03:43:34.317Z,15.20
2024-02-09T03:46:02.397Z,15.30
2024-02-09T03:48:30.373Z,14.60
2024-02-09T03:50:58.261Z,12.80
2024-02-09T03:53:25.877Z,13.90
2024-02-09T03:55:53.563Z,13.10
2024-02-09T03:58:21.311Z,12.30
2024-02-09T04:00:49.080Z,12.30
2024-02-09T04:03:16.848Z,13.30
2024-02-09T04:05:47.023Z,12.40
2024-02-09T04:08:14.821Z,12.30
2024-02-09T04:10:44.441Z,12.30
2024-02-09T04:13:15.445Z,11.50
2024-02-09T04:15:43.324Z,11.40
2024-02-09T04:18:11.574Z,12.20
2024-02-09T04:20:39.937Z,12.10
2024-02-09T04:23:08.963Z,12.40
2024-02-09T04:25:38.016Z,12.90
2024-02-09T04:28:06.424Z,13.00
2024-02-09T04:30:34.329Z,13.10
2024-02-09T04:33:02.218Z,14.90
2024-02-09T04:35:30.098Z,14.30
2024-02-09T04:37:57.786Z,14.80
2024-02-09T04:40:26.747Z,14.70
2024-02-09T04:42:54.651Z,15.50
2024-02-09T04:45:23.837Z,16.30
2024-02-09T04:47:52.032Z,17.30
2024-02-09T04:50:22.479Z,17.70
2024-02-09T04:52:51.083Z,18.80
2024-02-09T04:55:19.504Z,18.80
2024-02-09T04:57:47.217Z,19.20
2024-02-09T05:00:15.253Z,20.50
2024-02-09T05:02:45.790Z,20.20
2024-02-09T05:05:14.223Z,21.30
2024-02-09T05:07:42.719Z,21.10
2024-02-09T05:10:12.777Z,20.20
2024-02-09T05:12:40.855Z,20.70
2024-02-09T05:15:09.078Z,22.30
2024-02-09T05:17:41.244Z,22.30
2024-02-09T05:20:10.137Z,22.20
2024-02-09T05:22:37.942Z,20.80
2024-02-09T05:25:06.356Z,22.20
2024-02-09T05:27:34.279Z,24.20
2024-02-09T05:30:02.160Z,24.00
2024-02-09T05:32:31.466Z,23.20
2024-02-09T05:34:59.482Z,25.60
2024-02-09T05:37:27.720Z,26.90
2024-02-09T05:39:57.783Z,26.60
2024-02-09T05:42:25.969Z,28.30
2024-02-09T05:44:53.810Z,27.10
2024-02-09T05:47:21.607Z,27.90
2024-02-09T05:49:49.558Z,28.90
2024-02-09T05:52:17.429Z,29.90
2024-02-09T05:54:45.205Z,29.80
2024-02-09T05:57:14.848Z,29.90
2024-02-09T05:59:45.215Z,31.40
2024-02-09T06:02:12.929Z,31.70
2024-02-09T06:04:41.362Z,30.60
2024-02-09T06:07:09.288Z,30.70
2024-02-09T06:09:38.316Z,31.70
2024-02-09T06:12:06.736Z,30.80
2024-02-09T06:14:34.847Z,30.50
2024-02-09T06:17:02.573Z,27.10
2024-02-09T06:19:30.759Z,29.50
2024-02-09T06:21:58.758Z,28.50
2024-02-09T06:24:26.774Z,27.80
2024-02-09T06:26:54.563Z,27.00
2024-02-09T06:29:22.794Z,26.10
2024-02-09T06:31:54.412Z,24.20
2024-02-09T06:34:23.454Z,25.50
2024-02-09T06:36:51.394Z,24.60
2024-02-09T06:39:19.204Z,23.20
2024-02-09T06:41:48.378Z,22.00
2024-02-09T06:44:16.428Z,23.00
2024-02-09T06:46:44.208Z,22.70
2024-02-09T06:49:12.153Z,20.50
2024-02-09T06:51:40.189Z,21.40
2024-02-09T06:54:08.018Z,21.10
2024-02-09T06:56:35.795Z,20.00
2024-02-09T06:59:05.942Z,19.70
2024-02-09T07:01:33.722Z,20.00
2024-02-09T07:04:01.733Z,18.70
2024-02-09T07:06:29.702Z,20.30
2024-02-09T07:08:57.463Z,20.60
2024-02-09T07:11:26.052Z,18.20
2024-02-09T07:13:54.004Z,18.90
2024-02-09T07:16:21.837Z,18.30
2024-02-09T07:18:49.784Z,18.30
2024-02-09T07:21:18.252Z,18.60
2024-02-09T07:23:51.774Z,18.90
2024-02-09T07:26:22.136Z,17.70
2024-02-09T07:28:50.423Z,18.40
2024-02-09T07:31:18.574Z,18.30
2024-02-09T07:33:48.042Z,18.30
2024-02-09T07:36:16.051Z,18.10
2024-02-09T07:38:44.203Z,17.40
2024-02-09T07:41:20.809Z,18.30
2024-02-09T07:43:49.041Z,16.80
2024-02-09T07:46:17.300Z,17.20
2024-02-09T07:48:46.003Z,16.60
2024-02-09T07:51:17.491Z,16.30
2024-02-09T07:53:54.139Z,16.80
2024-02-09T07:56:25.949Z,16.50
2024-02-09T07:58:53.898Z,14.90
2024-02-09T08:01:23.028Z,15.70
2024-02-09T08:03:54.776Z,15.10
2024-02-09T08:06:23.156Z,15.90
2024-02-09T08:08:54.528Z,15.30
2024-02-09T08:11:23.863Z,13.50
2024-02-09T08:13:55.429Z,14.10
2024-02-09T08:16:23.664Z,14.20
2024-02-09T08:18:51.857Z,13.80
2024-02-09T08:21:20.074Z,13.50
2024-02-09T08:23:47.902Z,14.90
2024-02-09T08:26:15.851Z,13.30
2024-02-09T08:28:48.597Z,12.90
2024-02-09T08:31:18.398Z,12.90
2024-02-09T08:33:50.584Z,12.00
2024-02-09T08:36:22.630Z,11.70
2024-02-09T08:38:51.687Z,12.00
2024-02-09T08:41:19.908Z,12.90
2024-02-09T08:43:48.224Z,13.40
2024-02-09T08:46:16.521Z,12.90
2024-02-09T08:48:44.600Z,11.40
2024-02-09T08:51:12.583Z,11.80
2024-02-09T08:53:41.863Z,11.70
2024-02-09T08:56:13.211Z,11.90
2024-02-09T08:58:42.898Z,11.90
2024-02-09T09:01:11.061Z,11.20
2024-02-09T09:03:39.166Z,12.00
2024-02-09T09:06:08.801Z,11.80
2024-02-09T09:08:36.876Z,11.70
2024-02-09T09:11:04.868Z,11.10
2024-02-09T09:13:32.895Z,11.50
2024-02-09T09:16:00.868Z,11.50
2024-02-09T09:18:30.635Z,12.10
2024-02-09T09:20:58.585Z,12.30
2024-02-09T09:23:26.422Z,13.30
2024-02-09T09:25:54.518Z,12.50
2024-02-09T09:28:22.798Z,10.10
2024-02-09T09:30:50.650Z,10.90
2024-02-09T09:33:18.420Z,11.20
2024-02-09T09:35:48.229Z,10.10
2024-02-09T09:38:20.070Z,10.00
2024-02-09T09:40:54.494Z,10.00
2024-02-09T09:43:23.222Z,10.30
2024-02-09T09:45:54.697Z,10.10
2024-02-09T09:48:22.499Z,9.80
2024-02-09T09:50:52.040Z,9.40
2024-02-09T09:53:22.697Z,10.20
2024-02-09T09:55:50.857Z,8.90
2024-02-09T09:58:18.983Z,11.40
2024-02-09T10:00:47.897Z,11.00
2024-02-09T10:03:16.067Z,11.60
2024-02-09T10:05:46.991Z,11.40
2024-02-09T10:08:14.920Z,12.10
2024-02-09T10:10:43.225Z,11.50
2024-02-09T10:13:12.663Z,11.80
2024-02-09T10:15:48.569Z,10.50
2024-02-09T10:18:16.377Z,11.70
2024-02-09T10:20:47.534Z,12.30
2024-02-09T10:23:16.681Z,12.20
2024-02-09T10:25:45.189Z,11.90
2024-02-09T10:28:14.182Z,12.80
2024-02-09T10:30:42.797Z,10.90
2024-02-09T10:33:13.584Z,10.80
2024-02-09T10:35:41.848Z,11.10
2024-02-09T10:38:09.892Z,10.70
2024-02-09T10:40:37.885Z,10.90
2024-02-09T10:43:05.832Z,10.30
2024-02-09T10:45:34.496Z,8.70
2024-02-09T10:48:03.686Z,8.10
2024-02-09T10:50:32.644Z,10.20
2024-02-09T10:53:02.163Z,8.10
2024-02-09T10:55:39.030Z,7.10
2024-02-09T10:58:08.887Z,7.20
2024-02-09T11:00:39.447Z,7.10
2024-02-09T11:03:08.300Z,7.10
2024-02-09T11:05:38.201Z,7.70
2024-02-09T11:08:07.025Z,6.70
2024-02-09T11:10:35.178Z,7.00
2024-02-09T11:13:03.573Z,7.50
2024-02-09T11:15:33.394Z,8.20
2024-02-09T11:18:01.733Z,7.30
2024-02-09T11:20:31.504Z,7.30
2024-02-09T11:23:01.637Z,7.20
2024-02-09T11:25:34.001Z,7.20
2024-02-09T11:28:07.169Z,8.10
2024-02-09T11:30:35.370Z,7.60
2024-02-09T11:33:03.201Z,7.00
2024-02-09T11:35:31.256Z,6.40
2024-02-09T11:37:59.332Z,7.00
2024-02-09T11:40:27.050Z,7.10
2024-02-09T11:42:54.924Z,7.20
2024-02-09T11:45:22.785Z,6.60
2024-02-09T11:47:52.021Z,7.00
2024-02-09T11:50:21.876Z,7.50
2024-02-09T11:53:01.321Z,7.20
2024-02-09T11:55:40.971Z,7.30
2024-02-09T11:58:09.915Z,8.10
2024-02-09T12:00:39.692Z,7.90
2024-02-09T12:03:09.506Z,8.10
2024-02-09T12:05:38.595Z,8.70
2024-02-09T12:08:07.257Z,8.00
2024-02-09T12:10:37.214Z,7.90
2024-02-09T12:13:06.464Z,7.70
2024-02-09T12:15:35.008Z,7.60
2024-02-09T12:18:03.481Z,7.30
2024-02-09T12:20:33.778Z,7.50
2024-02-09T12:23:05.705Z,7.60
2024-02-09T12:25:38.902Z,7.20
2024-02-09T12:28:11.127Z,7.00
2024-02-09T12:30:42.722Z,7.80
2024-02-09T12:33:13.360Z,9.00
2024-02-09T12:35:42.593Z,7.80
2024-02-09T12:38:11.381Z,8.80
2024-02-09T12:40:42.952Z,9.20
2024-02-09T12:43:13.281Z,9.30
2024-02-09T12:45:41.013Z,9.80
2024-02-09T12:48:09.223Z,11.20
2024-02-09T12:50:39.215Z,10.30
2024-02-09T12:53:07.264Z,9.90
2024-02-09T12:55:35.350Z,9.40
2024-02-09T12:58:06.380Z,7.20
2024-02-09T13:00:34.774Z,9.30
2024-02-09T13:03:02.770Z,9.00
2024-02-09T13:05:32.124Z,10.30
2024-02-09T13:08:00.766Z,9.60
2024-02-09T13:10:28.601Z,8.50
2024-02-09T13:12:56.341Z,8.80
2024-02-09T13:15:26.175Z,9.00
2024-02-09T13:17:57.874Z,8.70
2024-02-09T13:20:26.879Z,8.70
2024-02-09T13:22:56.548Z,9.80
2024-02-09T13:25:24.591Z,9.80
2024-02-09T13:27:52.709Z,10.40
2024-02-09T13:30:21.690Z,9.80
2024-02-09T13:32:49.728Z,9.90
2024-02-09T13:35:18.996Z,10.00
2024-02-09T13:37:47.088Z,10.30
2024-02-09T13:40:17.679Z,9.40
2024-02-09T13:42:50.857Z,9.60
2024-02-09T13:45:22.736Z,11.10
2024-02-09T13:47:53.203Z,10.60
2024-02-09T13:50:25.376Z,11.10
2024-02-09T13:52:55.661Z,12.10
2024-02-09T13:55:26.210Z,11.60
2024-02-09T13:57:55.752Z,11.60
2024-02-09T14:00:25.613Z,10.80
2024-02-09T14:02:53.452Z,11.40
2024-02-09T14:05:23.686Z,13.10
2024-02-09T14:07:52.783Z,12.20
2024-02-09T14:10:21.268Z,13.10
2024-02-09T14:12:49.327Z,13.30
2024-02-09T14:15:17.443Z,13.50
2024-02-09T14:17:46.876Z,13.30
2024-02-09T14:20:16.829Z,12.50
2024-02-09T14:22:44.775Z,13.20
2024-02-09T14:25:14.120Z,12.60
2024-02-09T14:27:43.341Z,12.30
2024-02-09T14:30:12.988Z,11.10
2024-02-09T14:32:40.771Z,11.10
2024-02-09T14:35:08.738Z,11.40
2024-02-09T14:37:36.567Z,10.70
2024-02-09T14:40:04.802Z,10.90
2024-02-09T14:42:32.661Z,10.20
2024-02-09T14:45:01.259Z,9.80
2024-02-09T14:47:30.422Z,11.20
2024-02-09T14:49:58.324Z,11.30
2024-02-09T14:52:28.600Z,10.30
2024-02-09T14:54:56.385Z,9.80
2024-02-09T14:57:24.093Z,9.90
2024-02-09T14:59:52.304Z,10.20
2024-02-09T15:02:20.218Z,10.10
2024-02-09T15:04:51.318Z,10.90
2024-02-09T15:07:22.223Z,10.20
2024-02-09T15:09:50.487Z,11.80
2024-02-09T15:12:19.998Z,11.50
2024-02-09T15:14:52.442Z,12.90
2024-02-09T15:17:24.129Z,13.20
2024-02-09T15:19:52.203Z,12.30
2024-02-09T15:22:20.218Z,14.00
2024-02-09T15:24:48.181Z,14.80
2024-02-09T15:27:16.053Z,15.20
2024-02-09T15:29:43.770Z,16.60
2024-02-09T15:32:14.196Z,16.00
2024-02-09T15:34:45.794Z,15.40
2024-02-09T15:37:14.959Z,16.10
2024-02-09T15:39:43.117Z,16.50
2024-02-09T15:42:10.857Z,17.20
2024-02-09T15:44:40.124Z,17.10
2024-02-09T15:47:07.867Z,16.70
2024-02-09T15:49:36.724Z,18.40
2024-02-09T15:52:04.765Z,19.30
2024-02-09T15:54:32.570Z,19.60
2024-02-09T15:57:00.423Z,22.10
2024-02-09T15:59:28.362Z,21.90
2024-02-09T16:01:56.683Z,22.70
2024-02-09T16:04:27.145Z,22.60
2024-02-09T16:06:57.050Z,22.60
2024-02-09T16:09:24.706Z,24.70
2024-02-09T16:11:52.372Z,26.50
2024-02-09T16:14:20.106Z,28.80
2024-02-09T16:16:47.868Z,28.30
2024-02-09T16:19:15.690Z,28.90
2024-02-09T16:21:43.511Z,29.30
2024-02-09T16:24:11.676Z,32.70
2024-02-09T16:26:40.495Z,29.70
2024-02-09T16:29:12.465Z,34.10
2024-02-09T16:31:41.612Z,33.00
2024-02-09T16:34:09.580Z,35.70
2024-02-09T16:36:40.708Z,38.50
2024-02-09T16:39:08.529Z,33.80
2024-02-09T16:41:36.214Z,35.00
2024-02-09T16:44:04.524Z,33.80
2024-02-09T16:46:32.300Z,34.70
2024-02-09T16:49:01.297Z,35.80
2024-02-09T16:51:29.237Z,34.00
2024-02-09T16:53:58.804Z,35.30
2024-02-09T16:56:26.726Z,35.50
2024-02-09T16:58:54.709Z,38.50
2024-02-09T17:01:23.233Z,38.60
2024-02-09T17:03:52.215Z,40.90
2024-02-09T17:06:20.685Z,42.50
2024-02-09T17:08:48.618Z,40.10
2024-02-09T17:11:16.392Z,43.30
2024-02-09T17:13:46.840Z,44.20
2024-02-09T17:16:14.649Z,42.30
2024-02-09T17:18:43.396Z,44.50
2024-02-09T17:21:14.046Z,46.60
2024-02-09T17:23:42.381Z,46.50
2024-02-09T17:26:11.111Z,45.30
2024-02-09T17:28:39.017Z,42.20
2024-02-09T17:31:08.693Z,44.80
2024-02-09T17:33:36.766Z,47.00
2024-02-09T17:36:05.508Z,48.30
2024-02-09T17:38:34.879Z,47.60
2024-02-09T17:41:10.605Z,48.80
2024-02-09T17:43:41.387Z,50.90
2024-02-09T17:46:09.156Z,51.20
2024-02-09T17:48:37.532Z,55.20
2024-02-09T17:51:07.522Z,53.10
2024-02-09T17:53:35.674Z,55.80
2024-02-09T17:56:04.240Z,59.60
2024-02-09T17:58:32.142Z,55.90
2024-02-09T18:01:00.034Z,57.10
2024-02-09T18:03:27.901Z,59.80
2024-02-09T18:05:55.797Z,58.60
2024-02-09T18:08:23.653Z,63.60
2024-02-09T18:10:51.447Z,66.10
2024-02-09T18:13:19.332Z,64.60
2024-02-09T18:15:47.193Z,61.70
2024-02-09T18:18:15.253Z,66.00
2024-02-09T18:20:43.577Z,70.00
2024-02-09T18:23:11.419Z,68.90
2024-02-09T18:25:39.140Z,67.30
2024-02-09T18:28:06.909Z,66.70
2024-02-09T18:30:35.846Z,69.10
2024-02-09T18:33:04.338Z,70.10
2024-02-09T18:35:33.789Z,66.00
2024-02-09T18:38:01.624Z,69.10
2024-02-09T18:40:31.911Z,70.20
2024-02-09T18:42:59.827Z,69.80
2024-02-09T18:45:27.636Z,70.10
2024-02-09T18:47:55.388Z,67.90
2024-02-09T18:50:23.227Z,70.10
2024-02-09T18:52:51.781Z,66.40
2024-02-09T18:55:20.462Z,68.40
2024-02-09T18:57:49.415Z,68.90
2024-02-09T19:00:17.313Z,72.60
2024-02-09T19:02:45.096Z,72.20
2024-02-09T19:05:14.959Z,71.60
2024-02-09T19:07:43.152Z,74.30
2024-02-09T19:10:11.970Z,74.60
2024-02-09T19:12:39.832Z,75.40
2024-02-09T19:15:11.217Z,78.60
2024-02-09T19:17:40.227Z,79.60
2024-02-09T19:20:12.647Z,82.10
2024-02-09T19:22:40.464Z,83.20
2024-02-09T19:25:08.546Z,81.60
2024-02-09T19:27:36.340Z,80.90
2024-02-09T19:30:04.712Z,84.70
2024-02-09T19:32:32.464Z,86.00
2024-02-09T19:35:00.530Z,84.40
2024-02-09T19:37:29.598Z,80.30
2024-02-09T19:39:57.432Z,86.60
2024-02-09T19:42:27.524Z,85.30
2024-02-09T19:44:56.711Z,82.90
2024-02-09T19:47:24.863Z,79.80
2024-02-09T19:49:53.776Z,82.80
2024-02-09T19:52:21.844Z,77.90
2024-02-09T19:54:50.213Z,76.90
2024-02-09T19:57:18.384Z,79.10
2024-02-09T19:59:50.468Z,78.10
2024-02-09T20:02:24.994Z,80.80
2024-02-09T20:04:59.594Z,80.20
2024-02-09T20:07:29.295Z,76.40
2024-02-09T20:09:59.048Z,80.20
2024-02-09T20:12:26.984Z,78.20
2024-02-09T20:14:56.049Z,78.90
2024-02-09T20:17:27.373Z,84.40
2024-02-09T20:19:55.342Z,81.00
2024-02-09T20:22:23.288Z,80.80
2024-02-09T20:24:51.200Z,80.30
2024-02-09T20:27:19.804Z,84.70
2024-02-09T20:29:47.642Z,79.10
2024-02-09T20:32:15.388Z,82.80
2024-02-09T20:34:44.226Z,75.40
2024-02-09T20:37:15.683Z,81.50
2024-02-09T20:39:43.636Z,75.80
2024-02-09T20:42:11.607Z,77.70
2024-02-09T20:44:41.570Z,79.50
2024-02-09T20:47:11.212Z,78.90
2024-02-09T20:49:42.794Z,78.00
2024-02-09T20:52:13.062Z,79.60
2024-02-09T20:54:42.067Z,79.10
2024-02-09T20:57:10.027Z,80.90
2024-02-09T20:59:42.036Z,75.50
2024-02-09T21:02:13.950Z,78.40
2024-02-09T21:04:43.251Z,75.70
2024-02-09T21:07:11.369Z,78.00
2024-02-09T21:09:39.357Z,77.20
2024-02-09T21:12:11.085Z,75.50
2024-02-09T21:14:39.053Z,79.30
2024-02-09T21:17:06.994Z,78.00
2024-02-09T21:19:36.968Z,77.80
2024-02-09T21:22:05.948Z,75.90
2024-02-09T21:24:33.626Z,80.00
2024-02-09T21:27:01.565Z,79.40
2024-02-09T21:29:29.340Z,80.20
2024-02-09T21:31:59.642Z,83.00
2024-02-09T21:34:28.081Z,81.10
2024-02-09T21:36:55.938Z,86.60
2024-02-09T21:39:23.586Z,88.90
2024-02-09T21:41:51.315Z,86.40
2024-02-09T21:44:20.476Z,88.50
2024-02-09T21:46:49.160Z,85.40
2024-02-09T21:49:17.071Z,90.40
2024-02-09T21:51:45.292Z,88.50
2024-02-09T21:54:14.592Z,87.70
2024-02-09T21:56:44.652Z,92.90
2024-02-09T21:59:15.408Z,92.30
2024-02-09T22:01:43.487Z,89.20
2024-02-09T22:04:11.244Z,90.00
2024-02-09T22:06:39.895Z,93.70
2024-02-09T22:09:07.608Z,91.60
2024-02-09T22:11:36.280Z,97.20
2024-02-09T22:14:11.524Z,93.60
2024-02-09T22:16:41.145Z,95.20
2024-02-09T22:19:09.787Z,98.70
2024-02-09T22:21:37.731Z,96.80
2024-02-09T22:24:05.634Z,94.60
2024-02-09T22:26:33.535Z,95.60
2024-02-09T22:29:01.347Z,98.70
2024-02-09T22:31:31.061Z,96.30
2024-02-09T22:33:58.843Z,100.80
2024-02-09T22:36:27.201Z,98.80
2024-02-09T22:38:55.076Z,98.50
2024-02-09T22:41:25.176Z,101.40
2024-02-09T22:43:56.264Z,99.80
2024-02-09T22:46:25.402Z,101.50
2024-02-09T22:48:53.406Z,100.20
2024-02-09T22:51:21.158Z,101.00
2024-02-09T22:53:52.837Z,99.50
2024-02-09T22:56:22.170Z,106.20
2024-02-09T22:58:50.557Z,102.80
2024-02-09T23:01:18.806Z,102.60
2024-02-09T23:03:49.453Z,101.60
2024-02-09T23:06:20.930Z,102.90
2024-02-09T23:08:51.123Z,103.20
2024-02-09T23:11:19.280Z,100.80
2024-02-09T23:13:47.213Z,101.10
2024-02-09T23:16:19.720Z,101.40
2024-02-09T23:18:47.850Z,100.80
2024-02-09T23:21:15.624Z,97.80
2024-02-09T23:23:44.847Z,103.90
2024-02-09T23:26:14.665Z,97.00
2024-02-09T23:28:42.481Z,101.50
2024-02-09T23:31:10.331Z,96.40
2024-02-09T23:33:38.289Z,101.80
2024-02-09T23:36:06.312Z,103.20
2024-02-09T23:38:34.551Z,102.20
2024-02-09T23:41:02.854Z,96.50
2024-02-09T23:43:38.613Z,98.20
2024-02-09T23:46:09.983Z,96.10
2024-02-09T23:48:39.941Z,101.40
2024-02-09T23:51:10.370Z,93.60
2024-02-09T23:53:40.144Z,91.40
2024-02-09T23:56:08.971Z,91.40
2024-02-09T23:58:36.900Z,90.40
